createdAt,value
2024-05-09T00:00:42.632Z,12.72
2024-05-09T00:03:12.293Z,12.62
2024-05-09T00:05:45.036Z,12.50
2024-05-09T00:08:14.364Z,12.69
2024-05-09T00:10:41.593Z,12.63
2024-05-09T00:13:11.299Z,12.67
2024-05-09T00:15:38.585Z,12.64
2024-05-09T00:18:08.677Z,12.64
2024-05-09T00:20:39.618Z,12.49
2024-05-09T00:23:12.436Z,12.41
2024-05-09T00:25:43.623Z,12.48
2024-05-09T00:28:14.039Z,11.81
2024-05-09T00:30:42.868Z,12.18
2024-05-09T00:33:10.774Z,12.29
2024-05-09T00:35:38.753Z,10.94
2024-05-09T00:38:05.718Z,10.04
2024-05-09T00:40:40.831Z,10.03
2024-05-09T00:43:13.414Z,10.29
2024-05-09T00:45:41.195Z,9.98
2024-05-09T00:48:10.181Z,10.26
2024-05-09T00:50:44.139Z,9.98
2024-05-09T00:53:12.670Z,10.47
2024-05-09T00:55:42.371Z,10.89
2024-05-09T00:58:12.191Z,11.22
2024-05-09T01:00:41.131Z,11.58
2024-05-09T01:03:12.872Z,11.74
2024-05-09T01:05:41.855Z,11.79
2024-05-09T01:08:10.101Z,11.88
2024-05-09T01:10:37.771Z,11.78
2024-05-09T01:13:07.703Z,11.75
2024-05-09T01:15:35.649Z,11.83
2024-05-09T01:18:08.129Z,11.84
2024-05-09T01:23:10.409Z,11.97
2024-05-09T01:25:37.514Z,12.02
2024-05-09T01:28:04.430Z,11.72
2024-05-09T01:30:35.929Z,10.92
2024-05-09T01:33:08.860Z,10.79
2024-05-09T01:35:41.791Z,11.20
2024-05-09T01:38:12.073Z,11.46
2024-05-09T01:40:40.253Z,11.65
2024-05-09T01:43:11.061Z,11.55
2024-05-09T01:45:41.584Z,11.23
2024-05-09T01:48:11.640Z,11.16
2024-05-09T01:50:41.700Z,11.11
2024-05-09T01:53:14.915Z,11.19
2024-05-09T01:55:44.985Z,11.26
2024-05-09T01:58:11.732Z,11.25
2024-05-09T02:00:42.790Z,11.32
2024-05-09T02:03:14.984Z,11.01
2024-05-09T02:05:45.100Z,11.33
2024-05-09T02:08:20.260Z,11.27
2024-05-09T02:10:51.013Z,11.26
2024-05-09T02:13:18.210Z,11.19
2024-05-09T02:15:52.371Z,11.17
2024-05-09T02:18:22.098Z,11.30
2024-05-09T02:20:48.923Z,11.34
2024-05-09T02:23:15.752Z,11.34
2024-05-09T02:25:44.645Z,11.31
2024-05-09T02:28:11.294Z,10.82
2024-05-09T02:30:41.940Z,10.63
2024-05-09T02:33:12.176Z,10.59
2024-05-09T02:35:41.133Z,10.81
2024-05-09T02:38:09.750Z,10.87
2024-05-09T02:40:40.040Z,10.94
2024-05-09T02:43:12.399Z,11.03
2024-05-09T02:45:42.040Z,11.06
2024-05-09T02:48:14.523Z,10.44
2024-05-09T02:50:41.836Z,9.94
2024-05-09T02:53:09.544Z,9.82
2024-05-09T02:55:37.307Z,10.20
2024-05-09T02:58:06.356Z,10.19
2024-05-09T03:00:38.941Z,9.89
2024-05-09T03:03:13.293Z,9.78
2024-05-09T03:05:42.758Z,10.06
2024-05-09T03:08:09.978Z,10.28
2024-05-09T03:10:39.777Z,10.36
2024-05-09T03:13:12.800Z,10.22
2024-05-09T03:15:40.639Z,10.23
2024-05-09T03:18:09.764Z,10.18
2024-05-09T03:20:37.283Z,10.17
2024-05-09T03:23:05.499Z,10.11
2024-05-09T03:25:34.966Z,10.02
2024-05-09T03:28:04.174Z,10.14
2024-05-09T03:30:39.524Z,10.23
2024-05-09T03:33:22.422Z,10.31
2024-05-09T03:35:51.378Z,10.32
2024-05-09T03:38:20.378Z,10.26
2024-05-09T03:40:52.491Z,10.26
2024-05-09T03:43:19.925Z,10.35
2024-05-09T03:45:50.564Z,10.23
2024-05-09T03:48:17.575Z,10.24
2024-05-09T03:50:44.417Z,10.28
2024-05-09T03:53:14.601Z,10.18
2024-05-09T03:55:41.730Z,10.27
2024-05-09T03:58:12.887Z,10.29
2024-05-09T04:00:40.383Z,10.15
2024-05-09T04:03:11.823Z,10.20
2024-05-09T04:05:45.176Z,10.20
2024-05-09T04:08:16.472Z,10.14
2024-05-09T04:10:43.140Z,10.14
2024-05-09T04:13:12.610Z,10.14
2024-05-09T04:15:39.489Z,10.16
2024-05-09T04:18:06.334Z,9.77
2024-05-09T04:20:38.404Z,9.07
2024-05-09T04:23:08.921Z,9.20
2024-05-09T04:25:41.808Z,9.29
2024-05-09T04:28:10.715Z,9.47
2024-05-09T04:30:40.080Z,8.98
2024-05-09T04:33:12.749Z,8.81
2024-05-09T04:35:44.875Z,8.67
2024-05-09T04:38:15.734Z,8.68
2024-05-09T04:40:44.829Z,9.09
2024-05-09T04:43:16.168Z,9.14
2024-05-09T04:45:45.267Z,9.29
2024-05-09T04:48:14.527Z,9.47
2024-05-09T04:50:43.928Z,9.56
2024-05-09T04:53:15.814Z,9.77
2024-05-09T04:55:47.304Z,9.74
2024-05-09T04:58:13.970Z,9.85
2024-05-09T05:00:43.045Z,9.98
2024-05-09T05:03:15.836Z,10.01
2024-05-09T05:05:46.257Z,10.06
2024-05-09T05:08:15.143Z,10.16
2024-05-09T05:10:43.069Z,10.30
2024-05-09T05:13:20.301Z,10.01
2024-05-09T05:15:52.515Z,9.69
2024-05-09T05:18:22.617Z,10.05
2024-05-09T05:20:51.768Z,10.16
2024-05-09T05:23:20.456Z,10.06
2024-05-09T05:25:48.518Z,10.28
2024-05-09T05:28:19.180Z,10.46
2024-05-09T05:30:46.541Z,10.53
2024-05-09T05:33:19.227Z,10.43
2024-05-09T05:35:46.423Z,10.59
2024-05-09T05:38:15.417Z,10.67
2024-05-09T05:43:17.442Z,10.71
2024-05-09T05:45:44.624Z,10.80
2024-05-09T05:48:16.223Z,10.76
2024-05-09T05:50:48.478Z,10.90
2024-05-09T05:53:15.165Z,11.01
2024-05-09T05:55:44.554Z,11.19
2024-05-09T05:58:12.126Z,11.18
2024-05-09T06:00:43.206Z,11.28
2024-05-09T06:03:11.559Z,11.47
2024-05-09T06:05:43.960Z,11.43
2024-05-09T06:08:11.158Z,11.56
2024-05-09T06:10:40.162Z,11.62
2024-05-09T06:13:11.496Z,11.78
2024-05-09T06:15:39.420Z,12.01
2024-05-09T06:18:07.552Z,11.87
2024-05-09T06:20:39.641Z,11.80
2024-05-09T06:23:11.263Z,11.99
2024-05-09T06:25:38.470Z,12.06
2024-05-09T06:28:05.699Z,12.33
2024-05-09T06:30:38.788Z,12.58
2024-05-09T06:33:10.628Z,12.62
2024-05-09T06:35:41.402Z,12.39
2024-05-09T06:38:11.601Z,12.65
2024-05-09T06:40:44.651Z,12.58
2024-05-09T06:43:17.130Z,12.80
2024-05-09T06:45:49.025Z,13.21
2024-05-09T06:48:18.403Z,13.61
2024-05-09T06:50:45.742Z,13.85
2024-05-09T06:53:15.793Z,13.96
2024-05-09T06:55:45.685Z,14.13
2024-05-09T06:58:12.703Z,14.33
2024-05-09T07:00:41.276Z,14.45
2024-05-09T07:03:18.115Z,14.30
2024-05-09T07:05:49.360Z,14.82
2024-05-09T07:08:17.337Z,15.05
2024-05-09T07:10:44.527Z,15.21
2024-05-09T07:13:13.059Z,15.47
2024-05-09T07:15:40.652Z,15.41
2024-05-09T07:18:15.559Z,15.56
2024-05-09T07:20:43.148Z,15.16
2024-05-09T07:23:13.130Z,15.89
2024-05-09T07:25:40.931Z,16.44
2024-05-09T07:28:14.586Z,16.49
2024-05-09T07:30:41.814Z,16.32
2024-05-09T07:33:08.678Z,16.56
2024-05-09T07:35:35.758Z,16.97
2024-05-09T07:38:02.591Z,17.26
2024-05-09T07:40:35.703Z,16.41
2024-05-09T07:43:08.405Z,16.15
2024-05-09T07:45:48.564Z,17.24
2024-05-09T07:52:37.269Z,17.45
2024-05-09T07:53:47.916Z,17.35
2024-05-09T07:56:22.311Z,18.19
2024-05-09T07:58:51.905Z,18.44
2024-05-09T08:01:19.355Z,16.91
2024-05-09T08:03:48.803Z,16.90
2024-05-09T08:06:15.680Z,17.17
2024-05-09T08:08:44.494Z,18.46
2024-05-09T08:11:11.155Z,18.97
2024-05-09T08:13:37.768Z,18.04
2024-05-09T08:16:04.722Z,17.51
2024-05-09T08:18:31.444Z,18.38
2024-05-09T08:20:58.680Z,19.20
2024-05-09T08:23:28.815Z,19.76
2024-05-09T08:25:57.944Z,18.52
2024-05-09T08:28:24.590Z,18.61
2024-05-09T08:30:51.273Z,19.59
2024-05-09T08:33:18.266Z,19.83
2024-05-09T08:35:45.024Z,18.52
2024-05-09T08:38:13.713Z,19.63
2024-05-09T08:40:43.721Z,20.24
2024-05-09T08:43:12.492Z,20.48
2024-05-09T08:45:43.628Z,20.22
2024-05-09T08:48:12.971Z,20.94
2024-05-09T08:50:43.108Z,19.93
2024-05-09T08:53:10.010Z,19.22
2024-05-09T08:55:43.001Z,20.64
2024-05-09T08:58:17.914Z,20.55
2024-05-09T09:00:47.478Z,20.13
2024-05-09T09:03:27.861Z,20.34
2024-05-09T09:06:01.460Z,21.62
2024-05-09T09:08:28.358Z,21.20
2024-05-09T09:10:58.711Z,20.59
2024-05-09T09:13:28.014Z,21.05
2024-05-09T09:16:01.068Z,20.85
2024-05-09T09:18:29.161Z,21.41
2024-05-09T09:20:58.881Z,21.38
2024-05-09T09:23:29.811Z,21.15
2024-05-09T09:26:00.356Z,21.05
2024-05-09T09:28:26.952Z,21.19
2024-05-09T09:30:53.536Z,20.03
2024-05-09T09:33:25.043Z,21.34
2024-05-09T09:35:51.846Z,22.37
2024-05-09T09:38:23.267Z,22.54
2024-05-09T09:40:50.770Z,23.08
2024-05-09T09:43:23.756Z,22.13
2024-05-09T09:45:53.155Z,22.92
2024-05-09T09:48:23.605Z,23.24
2024-05-09T09:50:57.121Z,22.80
2024-05-09T09:53:26.723Z,19.92
2024-05-09T09:55:54.545Z,18.58
2024-05-09T09:58:22.446Z,19.60
2024-05-09T10:00:54.108Z,19.40
2024-05-09T10:03:23.167Z,20.79
2024-05-09T10:05:50.166Z,20.44
2024-05-09T10:08:19.850Z,18.22
2024-05-09T10:10:47.724Z,21.36
2024-05-09T10:13:16.896Z,21.57
2024-05-09T10:15:50.685Z,20.55
2024-05-09T10:18:22.611Z,20.35
2024-05-09T10:20:52.795Z,20.43
2024-05-09T10:23:36.260Z,22.43
2024-05-09T10:26:06.315Z,21.93
2024-05-09T10:28:38.602Z,21.80
2024-05-09T10:31:09.149Z,24.13
2024-05-09T10:33:47.488Z,21.16
2024-05-09T10:36:18.620Z,20.74
2024-05-09T10:38:45.270Z,22.02
2024-05-09T10:41:16.098Z,23.38
2024-05-09T10:43:43.120Z,20.33
2024-05-09T10:46:12.556Z,21.27
2024-05-09T10:48:42.807Z,22.13
2024-05-09T10:51:09.831Z,20.62
2024-05-09T10:53:47.815Z,20.93
2024-05-09T10:56:15.198Z,19.94
2024-05-09T10:58:41.882Z,21.54
2024-05-09T11:01:09.824Z,22.23
2024-05-09T11:03:39.940Z,23.38
2024-05-09T11:06:11.268Z,24.07
2024-05-09T11:08:41.328Z,24.41
2024-05-09T11:11:10.804Z,23.44
2024-05-09T11:13:39.300Z,24.30
2024-05-09T11:16:15.809Z,23.84
2024-05-09T11:18:52.664Z,23.05
2024-05-09T11:21:21.892Z,21.04
2024-05-09T11:23:48.779Z,23.09
2024-05-09T11:26:25.025Z,23.39
2024-05-09T11:28:54.143Z,22.99
2024-05-09T11:31:23.357Z,25.04
2024-05-09T11:33:54.666Z,24.41
2024-05-09T11:36:21.359Z,24.69
2024-05-09T11:38:50.049Z,22.96
2024-05-09T11:41:19.246Z,24.64
2024-05-09T11:43:45.853Z,23.96
2024-05-09T11:46:12.733Z,23.14
2024-05-09T11:48:42.013Z,23.19
2024-05-09T11:51:11.169Z,22.36
2024-05-09T11:53:37.756Z,23.38
2024-05-09T11:56:04.642Z,22.49
2024-05-09T11:58:34.753Z,23.59
2024-05-09T12:01:04.452Z,23.95
2024-05-09T12:03:31.520Z,23.66
2024-05-09T12:06:01.023Z,23.70
2024-05-09T12:08:30.356Z,23.22
2024-05-09T12:10:57.378Z,24.34
2024-05-09T12:13:28.849Z,23.31
2024-05-09T12:15:55.477Z,22.17
2024-05-09T12:18:25.783Z,23.13
2024-05-09T12:20:54.761Z,25.07
2024-05-09T12:23:21.289Z,25.17
2024-05-09T12:25:50.156Z,22.28
2024-05-09T12:28:19.084Z,22.40
2024-05-09T12:30:45.747Z,21.12
2024-05-09T12:33:13.795Z,21.05
2024-05-09T12:35:44.004Z,23.21
2024-05-09T12:38:13.698Z,22.87
2024-05-09T12:40:45.183Z,24.02
2024-05-09T12:43:16.645Z,23.45
2024-05-09T12:45:43.326Z,23.92
2024-05-09T12:48:12.352Z,24.92
2024-05-09T12:50:40.143Z,25.67
2024-05-09T12:53:11.636Z,23.51
2024-05-09T12:55:45.024Z,22.36
2024-05-09T12:58:22.987Z,22.61
2024-05-09T13:00:51.339Z,23.38
2024-05-09T13:03:18.213Z,22.19
2024-05-09T13:05:45.770Z,23.51
2024-05-09T13:08:13.508Z,21.36
2024-05-09T13:10:40.219Z,21.24
2024-05-09T13:13:09.184Z,22.20
2024-05-09T13:15:36.986Z,22.20
2024-05-09T13:18:06.598Z,22.47
2024-05-09T13:20:38.107Z,22.74
2024-05-09T13:23:07.240Z,23.38
2024-05-09T13:25:37.858Z,23.88
2024-05-09T13:28:08.123Z,23.63
2024-05-09T13:30:40.120Z,24.12
2024-05-09T13:33:11.250Z,23.65
2024-05-09T13:35:39.512Z,24.22
2024-05-09T13:38:06.820Z,23.71
2024-05-09T13:40:36.657Z,23.17
2024-05-09T13:43:06.975Z,23.13
2024-05-09T13:45:34.239Z,24.17
2024-05-09T13:48:04.110Z,24.07
2024-05-09T13:50:36.079Z,25.44
2024-05-09T13:53:09.542Z,23.32
2024-05-09T13:55:38.509Z,23.92
2024-05-09T13:58:05.911Z,25.21
2024-05-09T14:00:43.666Z,24.28
2024-05-09T14:03:15.691Z,24.00
2024-05-09T14:05:49.364Z,25.54
2024-05-09T14:08:18.685Z,25.27
2024-05-09T14:10:46.920Z,23.48
2024-05-09T14:13:14.165Z,24.97
2024-05-09T14:15:43.390Z,24.01
2024-05-09T14:18:13.165Z,23.50
2024-05-09T14:20:41.131Z,24.75
2024-05-09T14:23:07.740Z,26.24
2024-05-09T14:25:38.707Z,27.03
2024-05-09T14:28:10.546Z,25.93
2024-05-09T14:30:39.956Z,23.65
2024-05-09T14:33:08.016Z,25.19
2024-05-09T14:35:38.671Z,25.43
2024-05-09T14:38:07.339Z,23.64
2024-05-09T14:40:40.988Z,23.76
2024-05-09T14:43:15.079Z,25.55
2024-05-09T14:45:45.195Z,23.82
2024-05-09T14:48:17.725Z,22.94
2024-05-09T14:50:44.394Z,23.20
2024-05-09T14:53:12.191Z,24.52
2024-05-09T14:55:42.799Z,24.52
2024-05-09T14:58:13.675Z,23.83
2024-05-09T15:00:46.312Z,23.68
2024-05-09T15:03:20.118Z,23.19
2024-05-09T15:05:50.327Z,24.27
2024-05-09T15:08:22.852Z,23.21
2024-05-09T15:10:52.123Z,24.61
2024-05-09T15:13:20.490Z,24.24
2024-05-09T15:15:49.602Z,23.26
2024-05-09T15:18:16.784Z,23.76
2024-05-09T15:20:46.133Z,23.26
2024-05-09T15:23:13.219Z,22.15
2024-05-09T15:25:40.326Z,23.25
2024-05-09T15:28:09.433Z,23.30
2024-05-09T15:30:45.375Z,24.84
2024-05-09T15:33:13.408Z,23.76
2024-05-09T15:35:41.608Z,23.75
2024-05-09T15:38:09.471Z,24.19
2024-05-09T15:40:39.878Z,24.76
2024-05-09T15:43:12.905Z,25.31
2024-05-09T15:45:40.934Z,24.65
2024-05-09T15:48:08.908Z,25.55
2024-05-09T15:50:41.006Z,25.18
2024-05-09T15:53:13.125Z,23.47
2024-05-09T15:55:43.150Z,24.73
2024-05-09T15:58:10.448Z,25.38
2024-05-09T16:00:42.331Z,24.36
2024-05-09T16:03:14.511Z,26.30
2024-05-09T16:05:48.006Z,27.23
2024-05-09T16:08:15.623Z,28.34
2024-05-09T16:10:44.654Z,27.85
2024-05-09T16:13:17.895Z,25.78
2024-05-09T16:15:45.266Z,23.67
2024-05-09T16:18:14.995Z,24.53
2024-05-09T16:20:45.648Z,23.83
2024-05-09T16:23:14.258Z,22.80
2024-05-09T16:25:46.160Z,21.19
2024-05-09T16:28:16.476Z,23.26
2024-05-09T16:30:45.531Z,22.71
2024-05-09T16:33:12.426Z,23.42
2024-05-09T16:35:41.561Z,23.33
2024-05-09T16:38:08.299Z,24.13
2024-05-09T16:40:40.594Z,24.02
2024-05-09T16:43:14.780Z,23.90
2024-05-09T16:45:44.609Z,24.37
2024-05-09T16:48:14.551Z,23.84
2024-05-09T16:50:41.978Z,23.49
2024-05-09T16:53:12.052Z,24.04
2024-05-09T16:55:40.967Z,24.32
2024-05-09T16:58:12.271Z,24.54
2024-05-09T17:00:43.566Z,24.78
2024-05-09T17:03:14.137Z,24.15
2024-05-09T17:05:45.692Z,24.47
2024-05-09T17:08:18.063Z,24.77
2024-05-09T17:10:50.821Z,24.73
2024-05-09T17:13:21.019Z,24.45
2024-05-09T17:15:48.605Z,23.58
2024-05-09T17:18:17.838Z,23.53
2024-05-09T17:20:44.459Z,23.59
2024-05-09T17:23:14.437Z,24.16
2024-05-09T17:25:41.634Z,23.69
2024-05-09T17:28:09.325Z,24.25
2024-05-09T17:30:38.623Z,24.50
2024-05-09T17:33:08.938Z,24.35
2024-05-09T17:35:36.757Z,24.60
2024-05-09T17:38:04.998Z,24.64
2024-05-09T17:40:38.168Z,24.56
2024-05-09T17:43:08.438Z,24.45
2024-05-09T17:45:42.359Z,23.96
2024-05-09T17:48:10.359Z,24.40
2024-05-09T17:50:38.369Z,23.53
2024-05-09T17:53:07.954Z,23.99
2024-05-09T17:55:35.351Z,23.68
2024-05-09T17:58:02.670Z,23.43
2024-05-09T18:00:38.348Z,23.82
2024-05-09T18:03:14.482Z,23.13
2024-05-09T18:05:42.720Z,22.84
2024-05-09T18:08:10.358Z,22.89
2024-05-09T18:10:39.688Z,22.90
2024-05-09T18:13:11.383Z,21.98
2024-05-09T18:15:40.894Z,22.59
2024-05-09T18:18:10.839Z,22.49
2024-05-09T18:20:43.662Z,22.46
2024-05-09T18:23:17.487Z,22.43
2024-05-09T18:25:54.388Z,22.47
2024-05-09T18:28:21.396Z,21.89
2024-05-09T18:30:48.176Z,21.17
2024-05-09T18:33:15.063Z,21.65
2024-05-09T18:35:43.425Z,21.86
2024-05-09T18:38:10.230Z,21.36
2024-05-09T18:40:41.037Z,21.39
2024-05-09T18:43:09.571Z,20.25
2024-05-09T18:45:39.864Z,20.03
2024-05-09T18:48:09.088Z,20.94
2024-05-09T18:50:40.564Z,19.82
2024-05-09T18:53:12.732Z,18.95
2024-05-09T18:55:43.638Z,18.78
2024-05-09T18:58:17.113Z,19.58
2024-05-09T19:00:46.041Z,20.42
2024-05-09T19:03:17.599Z,20.99
2024-05-09T19:05:45.944Z,21.33
2024-05-09T19:08:15.792Z,21.54
2024-05-09T19:10:42.630Z,20.80
2024-05-09T19:13:12.429Z,19.88
2024-05-09T19:15:41.732Z,19.74
2024-05-09T19:18:12.058Z,19.07
2024-05-09T19:20:39.479Z,19.73
2024-05-09T19:23:07.168Z,20.37
2024-05-09T19:25:36.784Z,20.52
2024-05-09T19:28:06.730Z,20.30
2024-05-09T19:30:40.359Z,20.36
2024-05-09T19:33:15.149Z,20.45
2024-05-09T19:35:42.592Z,20.41
2024-05-09T19:38:11.685Z,19.97
2024-05-09T19:40:38.339Z,18.37
2024-05-09T19:43:06.158Z,18.75
2024-05-09T19:45:36.493Z,19.50
2024-05-09T19:48:04.698Z,19.86
2024-05-09T19:50:41.143Z,20.02
2024-05-09T19:53:13.406Z,20.03
2024-05-09T19:55:40.721Z,19.65
2024-05-09T19:58:08.713Z,19.22
2024-05-09T20:00:42.473Z,18.96
2024-05-09T20:03:12.303Z,18.71
2024-05-09T20:05:41.513Z,18.45
2024-05-09T20:08:10.825Z,17.87
2024-05-09T20:10:37.655Z,17.93
2024-05-09T20:13:06.870Z,17.98
2024-05-09T20:15:35.738Z,17.49
2024-05-09T20:18:05.772Z,17.71
2024-05-09T20:20:39.231Z,17.51
2024-05-09T20:23:10.950Z,17.81
2024-05-09T20:25:39.899Z,17.06
2024-05-09T20:28:09.776Z,17.44
2024-05-09T20:30:36.822Z,17.68
2024-05-09T20:33:05.924Z,18.02
2024-05-09T20:35:35.953Z,18.05
2024-05-09T20:38:03.673Z,17.80
2024-05-09T20:40:35.127Z,17.30
2024-05-09T20:43:10.351Z,17.22
2024-05-09T20:45:40.230Z,16.99
2024-05-09T20:48:08.559Z,16.74
2024-05-09T20:50:39.748Z,16.50
2024-05-09T20:53:09.931Z,16.62
2024-05-09T20:55:36.743Z,15.74
2024-05-09T20:58:03.387Z,16.62
2024-05-09T21:00:39.789Z,16.68
2024-05-09T21:03:10.148Z,15.51
2024-05-09T21:05:37.069Z,16.49
2024-05-09T21:08:06.101Z,16.90
2024-05-09T21:10:34.049Z,16.67
2024-05-09T21:13:04.477Z,17.06
2024-05-09T21:15:32.063Z,17.24
2024-05-09T21:17:59.106Z,17.32
2024-05-09T21:20:31.167Z,17.35
2024-05-09T21:22:59.403Z,17.22
2024-05-09T21:25:26.068Z,17.23
2024-05-09T21:27:55.029Z,17.30
2024-05-09T21:30:32.187Z,17.30
2024-05-09T21:33:08.955Z,17.28
2024-05-09T21:35:39.192Z,17.32
2024-05-09T21:38:08.216Z,17.25
2024-05-09T21:40:37.888Z,16.81
2024-05-09T21:43:06.485Z,16.91
2024-05-09T21:45:34.422Z,16.89
2024-05-09T21:48:03.675Z,16.62
2024-05-09T21:50:37.034Z,16.81
2024-05-09T21:53:07.595Z,16.70
2024-05-09T21:55:34.428Z,16.69
2024-05-09T21:58:03.801Z,16.46
2024-05-09T22:00:36.344Z,16.60
2024-05-09T22:03:06.530Z,15.95
2024-05-09T22:05:33.636Z,16.13
2024-05-09T22:08:03.027Z,16.28
2024-05-09T22:10:34.651Z,16.32
2024-05-09T22:13:06.760Z,16.29
2024-05-09T22:15:38.632Z,16.39
2024-05-09T22:18:09.964Z,16.39
2024-05-09T22:20:43.267Z,16.24
2024-05-09T22:23:11.455Z,16.17
2024-05-09T22:25:39.144Z,16.22
2024-05-09T22:28:08.754Z,16.08
2024-05-09T22:30:38.769Z,15.98
2024-05-09T22:33:11.587Z,16.02
2024-05-09T22:35:39.618Z,16.01
2024-05-09T22:38:06.555Z,15.97
2024-05-09T22:40:42.762Z,15.82
2024-05-09T22:43:17.940Z,15.90
2024-05-09T22:45:47.218Z,15.57
2024-05-09T22:48:16.326Z,14.91
2024-05-09T22:50:45.213Z,14.51
2024-05-09T22:53:14.066Z,14.98
2024-05-09T22:55:40.818Z,15.24
2024-05-09T22:58:09.999Z,15.11
2024-05-09T23:00:38.975Z,15.21
2024-05-09T23:03:06.118Z,14.71
2024-05-09T23:05:35.304Z,14.62
2024-05-09T23:08:02.359Z,14.72
2024-05-09T23:10:35.587Z,13.97
2024-05-09T23:13:04.498Z,14.50
2024-05-09T23:15:31.321Z,14.84
2024-05-09T23:18:02.840Z,14.74
2024-05-09T23:20:37.438Z,14.83
2024-05-09T23:23:10.768Z,15.11
2024-05-09T23:25:38.834Z,15.06
2024-05-09T23:28:06.164Z,14.93
2024-05-09T23:30:38.942Z,14.96
2024-05-09T23:33:09.303Z,14.72
2024-05-09T23:35:36.106Z,14.72
2024-05-09T23:38:02.980Z,14.63
2024-05-09T23:40:38.144Z,14.49
2024-05-09T23:43:08.230Z,14.24
2024-05-09T23:45:35.247Z,14.27
2024-05-09T23:48:02.664Z,14.36
2024-05-09T23:50:34.834Z,14.29
2024-05-09T23:53:05.079Z,14.13
2024-05-09T23:55:32.489Z,14.33
2024-05-09T23:57:59.590Z,14.42
